sensor_id;sensor_type;location;lat;lon;timestamp;temperature;humidity
43679;DHT22;29279;50.858;4.392;2023-07-20T00:01:15;18.00;99.90
43679;DHT22;29279;50.858;4.392;2023-07-20T00:03:41;17.90;99.90
43679;DHT22;29279;50.858;4.392;2023-07-20T00:06:07;17.90;99.90
43679;DHT22;29279;50.858;4.392;2023-07-20T00:08:33;17.70;99.90
43679;DHT22;29279;50.858;4.392;2023-07-20T00:10:58;17.70;99.90
43679;DHT22;29279;50.858;4.392;2023-07-20T00:13:24;17.70;99.90
43679;DHT22;29279;50.858;4.392;2023-07-20T00:15:51;17.60;99.90
43679;DHT22;29279;50.858;4.392;2023-07-20T00:18:17;17.60;99.90
43679;DHT22;29279;50.858;4.392;2023-07-20T00:20:43;17.60;99.90
43679;DHT22;29279;50.858;4.392;2023-07-20T00:23:08;17.60;99.90
43679;DHT22;29279;50.858;4.392;2023-07-20T00:25:34;17.70;99.90
43679;DHT22;29279;50.858;4.392;2023-07-20T00:28:01;17.70;99.90
43679;DHT22;29279;50.858;4.392;2023-07-20T00:30:27;17.70;99.90
43679;DHT22;29279;50.858;4.392;2023-07-20T00:32:53;17.70;99.90
43679;DHT22;29279;50.858;4.392;2023-07-20T00:35:18;17.70;99.90
43679;DHT22;29279;50.858;4.392;2023-07-20T00:37:49;17.60;99.90
43679;DHT22;29279;50.858;4.392;2023-07-20T00:40:14;17.60;99.90
43679;DHT22;29279;50.858;4.392;2023-07-20T00:42:40;17.60;99.90
43679;DHT22;29279;50.858;4.392;2023-07-20T00:45:06;17.60;99.90
43679;DHT22;29279;50.858;4.392;2023-07-20T00:47:32;17.70;99.90
43679;DHT22;29279;50.858;4.392;2023-07-20T00:49:58;17.70;99.90
43679;DHT22;29279;50.858;4.392;2023-07-20T00:52:25;17.80;99.90
43679;DHT22;29279;50.858;4.392;2023-07-20T00:54:51;17.80;99.90
43679;DHT22;29279;50.858;4.392;2023-07-20T00:57:18;17.90;99.90
43679;DHT22;29279;50.858;4.392;2023-07-20T00:59:44;17.90;99.90
43679;DHT22;29279;50.858;4.392;2023-07-20T01:02:10;17.90;99.90
43679;DHT22;29279;50.858;4.392;2023-07-20T01:04:35;17.90;99.90
43679;DHT22;29279;50.858;4.392;2023-07-20T01:07:17;18.10;99.90
43679;DHT22;29279;50.858;4.392;2023-07-20T01:13:03;18.00;99.90
43679;DHT22;29279;50.858;4.392;2023-07-20T01:15:22;17.90;99.90
43679;DHT22;29279;50.858;4.392;2023-07-20T01:17:47;18.00;99.90
43679;DHT22;29279;50.858;4.392;2023-07-20T01:20:18;17.90;99.90
43679;DHT22;29279;50.858;4.392;2023-07-20T01:31:27;17.70;99.90
43679;DHT22;29279;50.858;4.392;2023-07-20T01:33:58;17.70;99.90
43679;DHT22;29279;50.858;4.392;2023-07-20T01:36:25;17.70;99.90
43679;DHT22;29279;50.858;4.392;2023-07-20T01:38:52;17.80;99.90
43679;DHT22;29279;50.858;4.392;2023-07-20T01:41:18;17.90;99.90
43679;DHT22;29279;50.858;4.392;2023-07-20T01:43:44;17.80;99.90
43679;DHT22;29279;50.858;4.392;2023-07-20T01:46:09;17.80;99.90
43679;DHT22;29279;50.858;4.392;2023-07-20T01:48:35;17.90;99.90
43679;DHT22;29279;50.858;4.392;2023-07-20T01:51:01;17.90;99.90
43679;DHT22;29279;50.858;4.392;2023-07-20T01:53:27;17.90;99.90
43679;DHT22;29279;50.858;4.392;2023-07-20T01:55:53;17.90;99.90
43679;DHT22;29279;50.858;4.392;2023-07-20T01:58:20;17.90;99.90
43679;DHT22;29279;50.858;4.392;2023-07-20T02:00:45;17.90;99.90
43679;DHT22;29279;50.858;4.392;2023-07-20T02:03:11;17.90;99.90
43679;DHT22;29279;50.858;4.392;2023-07-20T02:05:41;18.00;99.90
43679;DHT22;29279;50.858;4.392;2023-07-20T02:08:07;17.90;99.90
43679;DHT22;29279;50.858;4.392;2023-07-20T02:10:33;18.00;99.90
43679;DHT22;29279;50.858;4.392;2023-07-20T02:12:58;18.00;99.90
43679;DHT22;29279;50.858;4.392;2023-07-20T02:15:24;18.00;99.90
43679;DHT22;29279;50.858;4.392;2023-07-20T02:17:50;18.00;99.90
43679;DHT22;29279;50.858;4.392;2023-07-20T02:20:15;17.90;99.90
43679;DHT22;29279;50.858;4.392;2023-07-20T02:22:41;18.00;99.90
43679;DHT22;29279;50.858;4.392;2023-07-20T02:25:08;18.00;99.90
43679;DHT22;29279;50.858;4.392;2023-07-20T02:27:37;18.00;99.90
43679;DHT22;29279;50.858;4.392;2023-07-20T02:30:03;17.90;99.90
43679;DHT22;29279;50.858;4.392;2023-07-20T02:32:30;17.90;99.90
43679;DHT22;29279;50.858;4.392;2023-07-20T02:34:56;17.90;99.90
43679;DHT22;29279;50.858;4.392;2023-07-20T02:37:21;18.00;99.90
43679;DHT22;29279;50.858;4.392;2023-07-20T02:39:47;18.00;99.90
43679;DHT22;29279;50.858;4.392;2023-07-20T02:42:12;17.90;99.90
43679;DHT22;29279;50.858;4.392;2023-07-20T02:44:38;18.10;99.90
43679;DHT22;29279;50.858;4.392;2023-07-20T02:47:04;18.10;99.90
43679;DHT22;29279;50.858;4.392;2023-07-20T02:49:30;18.10;99.90
43679;DHT22;29279;50.858;4.392;2023-07-20T02:51:56;18.10;99.90
43679;DHT22;29279;50.858;4.392;2023-07-20T02:54:22;18.00;99.90
43679;DHT22;29279;50.858;4.392;2023-07-20T02:56:47;18.00;99.90
43679;DHT22;29279;50.858;4.392;2023-07-20T02:59:13;18.10;99.90
43679;DHT22;29279;50.858;4.392;2023-07-20T03:01:38;18.10;99.90
43679;DHT22;29279;50.858;4.392;2023-07-20T03:04:04;18.20;99.90
43679;DHT22;29279;50.858;4.392;2023-07-20T03:06:30;18.20;99.90
43679;DHT22;29279;50.858;4.392;2023-07-20T03:08:56;18.20;99.90
43679;DHT22;29279;50.858;4.392;2023-07-20T03:11:22;18.30;99.90
43679;DHT22;29279;50.858;4.392;2023-07-20T03:13:48;18.30;99.90
43679;DHT22;29279;50.858;4.392;2023-07-20T03:16:17;18.30;99.90
43679;DHT22;29279;50.858;4.392;2023-07-20T03:18:44;18.30;99.90
43679;DHT22;29279;50.858;4.392;2023-07-20T03:21:10;18.30;99.90
43679;DHT22;29279;50.858;4.392;2023-07-20T03:23:40;18.30;99.90
43679;DHT22;29279;50.858;4.392;2023-07-20T03:26:06;18.30;99.90
43679;DHT22;29279;50.858;4.392;2023-07-20T03:28:34;18.30;99.90
43679;DHT22;29279;50.858;4.392;2023-07-20T03:30:59;18.30;99.90
43679;DHT22;29279;50.858;4.392;2023-07-20T03:33:26;18.20;99.90
43679;DHT22;29279;50.858;4.392;2023-07-20T03:35:53;18.20;99.90
43679;DHT22;29279;50.858;4.392;2023-07-20T03:38:19;18.30;99.90
43679;DHT22;29279;50.858;4.392;2023-07-20T03:40:52;18.30;99.90
43679;DHT22;29279;50.858;4.392;2023-07-20T03:43:18;18.20;99.90
43679;DHT22;29279;50.858;4.392;2023-07-20T03:45:44;18.10;99.90
43679;DHT22;29279;50.858;4.392;2023-07-20T03:48:11;18.20;99.90
43679;DHT22;29279;50.858;4.392;2023-07-20T03:50:37;18.30;99.90
43679;DHT22;29279;50.858;4.392;2023-07-20T03:53:03;18.40;99.90
43679;DHT22;29279;50.858;4.392;2023-07-20T03:55:28;18.30;99.90
43679;DHT22;29279;50.858;4.392;2023-07-20T03:57:54;18.30;99.90
43679;DHT22;29279;50.858;4.392;2023-07-20T04:00:19;18.20;99.90
43679;DHT22;29279;50.858;4.392;2023-07-20T04:02:45;18.20;99.90
43679;DHT22;29279;50.858;4.392;2023-07-20T04:05:11;18.30;99.90
43679;DHT22;29279;50.858;4.392;2023-07-20T04:07:36;18.30;99.90
43679;DHT22;29279;50.858;4.392;2023-07-20T04:10:02;18.30;99.90
43679;DHT22;29279;50.858;4.392;2023-07-20T04:12:28;18.30;99.90
43679;DHT22;29279;50.858;4.392;2023-07-20T04:14:53;18.30;99.90
43679;DHT22;29279;50.858;4.392;2023-07-20T04:17:19;18.20;99.90
43679;DHT22;29279;50.858;4.392;2023-07-20T04:19:45;18.30;99.90
43679;DHT22;29279;50.858;4.392;2023-07-20T04:22:10;18.30;99.90
43679;DHT22;29279;50.858;4.392;2023-07-20T04:24:36;18.30;99.90
43679;DHT22;29279;50.858;4.392;2023-07-20T04:27:02;18.30;99.90
43679;DHT22;29279;50.858;4.392;2023-07-20T04:29:28;18.30;99.90
43679;DHT22;29279;50.858;4.392;2023-07-20T04:31:53;18.40;99.90
43679;DHT22;29279;50.858;4.392;2023-07-20T04:34:19;18.40;99.90
43679;DHT22;29279;50.858;4.392;2023-07-20T04:36:45;18.40;99.90
43679;DHT22;29279;50.858;4.392;2023-07-20T04:39:12;18.60;99.90
43679;DHT22;29279;50.858;4.392;2023-07-20T04:41:37;18.60;99.90
43679;DHT22;29279;50.858;4.392;2023-07-20T04:44:03;18.60;99.90
43679;DHT22;29279;50.858;4.392;2023-07-20T04:46:29;18.60;99.90
43679;DHT22;29279;50.858;4.392;2023-07-20T04:48:54;18.60;99.90
43679;DHT22;29279;50.858;4.392;2023-07-20T04:51:20;18.60;99.90
43679;DHT22;29279;50.858;4.392;2023-07-20T04:53:47;18.70;99.90
43679;DHT22;29279;50.858;4.392;2023-07-20T04:56:12;18.80;99.90
43679;DHT22;29279;50.858;4.392;2023-07-20T04:58:38;18.80;99.90
43679;DHT22;29279;50.858;4.392;2023-07-20T05:01:04;18.80;99.90
43679;DHT22;29279;50.858;4.392;2023-07-20T05:03:29;18.80;99.90
43679;DHT22;29279;50.858;4.392;2023-07-20T05:05:55;18.80;99.90
43679;DHT22;29279;50.858;4.392;2023-07-20T05:08:21;18.90;99.90
43679;DHT22;29279;50.858;4.392;2023-07-20T05:10:47;18.90;99.90
43679;DHT22;29279;50.858;4.392;2023-07-20T05:13:13;18.90;99.90
43679;DHT22;29279;50.858;4.392;2023-07-20T05:15:39;18.80;99.90
43679;DHT22;29279;50.858;4.392;2023-07-20T05:18:05;18.90;99.90
43679;DHT22;29279;50.858;4.392;2023-07-20T05:20:31;19.00;99.90
43679;DHT22;29279;50.858;4.392;2023-07-20T05:22:58;19.00;99.90
43679;DHT22;29279;50.858;4.392;2023-07-20T05:25:24;19.00;99.90
43679;DHT22;29279;50.858;4.392;2023-07-20T05:27:50;18.90;99.90
43679;DHT22;29279;50.858;4.392;2023-07-20T05:30:16;19.00;99.90
43679;DHT22;29279;50.858;4.392;2023-07-20T05:32:41;18.90;99.90
43679;DHT22;29279;50.858;4.392;2023-07-20T05:35:07;18.90;99.90
43679;DHT22;29279;50.858;4.392;2023-07-20T05:37:34;19.00;99.90
43679;DHT22;29279;50.858;4.392;2023-07-20T05:39:59;19.00;99.90
43679;DHT22;29279;50.858;4.392;2023-07-20T05:42:25;19.10;99.90
43679;DHT22;29279;50.858;4.392;2023-07-20T05:44:51;19.10;99.90
43679;DHT22;29279;50.858;4.392;2023-07-20T05:47:18;19.10;99.90
43679;DHT22;29279;50.858;4.392;2023-07-20T05:49:44;19.20;99.90
43679;DHT22;29279;50.858;4.392;2023-07-20T05:52:09;19.20;99.90
43679;DHT22;29279;50.858;4.392;2023-07-20T05:54:35;19.30;99.90
43679;DHT22;29279;50.858;4.392;2023-07-20T05:57:01;19.30;99.90
43679;DHT22;29279;50.858;4.392;2023-07-20T05:59:27;19.30;99.90
43679;DHT22;29279;50.858;4.392;2023-07-20T06:01:57;19.30;99.90
43679;DHT22;29279;50.858;4.392;2023-07-20T06:04:22;19.40;99.90
43679;DHT22;29279;50.858;4.392;2023-07-20T06:06:49;19.40;99.90
43679;DHT22;29279;50.858;4.392;2023-07-20T06:09:14;19.50;99.90
43679;DHT22;29279;50.858;4.392;2023-07-20T06:11:40;19.50;99.90
43679;DHT22;29279;50.858;4.392;2023-07-20T06:14:06;19.50;99.90
43679;DHT22;29279;50.858;4.392;2023-07-20T06:16:32;19.60;99.90
43679;DHT22;29279;50.858;4.392;2023-07-20T06:19:00;19.70;99.90
43679;DHT22;29279;50.858;4.392;2023-07-20T06:21:26;19.70;99.90
43679;DHT22;29279;50.858;4.392;2023-07-20T06:23:52;19.70;99.90
43679;DHT22;29279;50.858;4.392;2023-07-20T06:26:17;19.70;99.90
43679;DHT22;29279;50.858;4.392;2023-07-20T06:28:43;19.80;99.90
43679;DHT22;29279;50.858;4.392;2023-07-20T06:31:08;19.90;99.90
43679;DHT22;29279;50.858;4.392;2023-07-20T06:33:34;19.90;99.90
43679;DHT22;29279;50.858;4.392;2023-07-20T06:36:00;19.90;99.90
43679;DHT22;29279;50.858;4.392;2023-07-20T06:38:26;20.00;99.90
43679;DHT22;29279;50.858;4.392;2023-07-20T06:40:52;20.00;99.90
43679;DHT22;29279;50.858;4.392;2023-07-20T06:43:18;20.10;99.90
43679;DHT22;29279;50.858;4.392;2023-07-20T06:45:44;20.20;99.90
43679;DHT22;29279;50.858;4.392;2023-07-20T06:48:09;20.30;99.90
43679;DHT22;29279;50.858;4.392;2023-07-20T06:50:35;20.30;99.90
43679;DHT22;29279;50.858;4.392;2023-07-20T06:53:01;20.40;99.90
43679;DHT22;29279;50.858;4.392;2023-07-20T06:55:29;20.50;99.90
43679;DHT22;29279;50.858;4.392;2023-07-20T06:57:55;20.60;99.90
43679;DHT22;29279;50.858;4.392;2023-07-20T07:00:20;20.60;99.90
43679;DHT22;29279;50.858;4.392;2023-07-20T07:02:46;20.70;99.90
43679;DHT22;29279;50.858;4.392;2023-07-20T07:05:12;20.70;99.90
43679;DHT22;29279;50.858;4.392;2023-07-20T07:07:39;20.60;99.90
43679;DHT22;29279;50.858;4.392;2023-07-20T07:10:06;20.60;99.90
43679;DHT22;29279;50.858;4.392;2023-07-20T07:12:32;20.60;99.90
43679;DHT22;29279;50.858;4.392;2023-07-20T07:14:57;20.70;99.90
43679;DHT22;29279;50.858;4.392;2023-07-20T07:17:23;20.80;99.90
43679;DHT22;29279;50.858;4.392;2023-07-20T07:19:49;20.90;99.90
43679;DHT22;29279;50.858;4.392;2023-07-20T07:22:15;20.80;99.90
43679;DHT22;29279;50.858;4.392;2023-07-20T07:24:40;20.80;99.90
43679;DHT22;29279;50.858;4.392;2023-07-20T07:27:08;20.80;99.90
43679;DHT22;29279;50.858;4.392;2023-07-20T07:29:34;20.90;99.90
43679;DHT22;29279;50.858;4.392;2023-07-20T07:32:00;21.10;99.90
43679;DHT22;29279;50.858;4.392;2023-07-20T07:34:27;21.30;99.90
43679;DHT22;29279;50.858;4.392;2023-07-20T07:36:52;21.40;99.90
43679;DHT22;29279;50.858;4.392;2023-07-20T07:39:19;21.50;99.90
43679;DHT22;29279;50.858;4.392;2023-07-20T07:41:45;21.60;99.90
43679;DHT22;29279;50.858;4.392;2023-07-20T07:44:11;21.80;99.90
43679;DHT22;29279;50.858;4.392;2023-07-20T07:46:42;21.80;99.90
43679;DHT22;29279;50.858;4.392;2023-07-20T07:49:08;22.00;99.90
43679;DHT22;29279;50.858;4.392;2023-07-20T07:51:33;21.80;99.90
43679;DHT22;29279;50.858;4.392;2023-07-20T07:53:59;21.70;99.90
43679;DHT22;29279;50.858;4.392;2023-07-20T07:56:25;21.60;99.90
43679;DHT22;29279;50.858;4.392;2023-07-20T07:58:51;21.60;99.90
43679;DHT22;29279;50.858;4.392;2023-07-20T08:01:19;21.70;99.90
43679;DHT22;29279;50.858;4.392;2023-07-20T08:03:45;21.70;99.90
43679;DHT22;29279;50.858;4.392;2023-07-20T08:06:13;21.80;99.90
43679;DHT22;29279;50.858;4.392;2023-07-20T08:08:39;22.00;99.90
43679;DHT22;29279;50.858;4.392;2023-07-20T08:11:04;22.20;99.90
43679;DHT22;29279;50.858;4.392;2023-07-20T08:13:30;22.30;99.90
43679;DHT22;29279;50.858;4.392;2023-07-20T08:15:57;22.40;99.90
43679;DHT22;29279;50.858;4.392;2023-07-20T08:18:23;22.50;99.90
43679;DHT22;29279;50.858;4.392;2023-07-20T08:20:48;22.50;99.90
43679;DHT22;29279;50.858;4.392;2023-07-20T08:23:14;22.70;99.90
43679;DHT22;29279;50.858;4.392;2023-07-20T08:25:41;22.80;99.90
43679;DHT22;29279;50.858;4.392;2023-07-20T08:28:11;22.90;99.90
43679;DHT22;29279;50.858;4.392;2023-07-20T08:30:44;23.10;99.90
43679;DHT22;29279;50.858;4.392;2023-07-20T08:33:13;23.40;99.90
43679;DHT22;29279;50.858;4.392;2023-07-20T08:35:39;23.50;99.90
43679;DHT22;29279;50.858;4.392;2023-07-20T08:38:04;23.60;99.90
43679;DHT22;29279;50.858;4.392;2023-07-20T08:40:34;23.80;99.90
43679;DHT22;29279;50.858;4.392;2023-07-20T08:43:04;23.80;99.80
43679;DHT22;29279;50.858;4.392;2023-07-20T08:45:33;23.80;99.50
43679;DHT22;29279;50.858;4.392;2023-07-20T08:48:00;23.60;99.70
43679;DHT22;29279;50.858;4.392;2023-07-20T08:50:30;23.60;99.90
43679;DHT22;29279;50.858;4.392;2023-07-20T08:52:57;23.60;99.30
43679;DHT22;29279;50.858;4.392;2023-07-20T08:55:25;23.60;99.70
43679;DHT22;29279;50.858;4.392;2023-07-20T08:57:56;23.60;99.50
43679;DHT22;29279;50.858;4.392;2023-07-20T09:00:23;23.70;98.70
43679;DHT22;29279;50.858;4.392;2023-07-20T09:02:50;23.60;99.00
43679;DHT22;29279;50.858;4.392;2023-07-20T09:05:20;23.30;98.80
43679;DHT22;29279;50.858;4.392;2023-07-20T09:07:46;23.20;99.10
43679;DHT22;29279;50.858;4.392;2023-07-20T09:10:12;23.10;99.00
43679;DHT22;29279;50.858;4.392;2023-07-20T09:12:40;23.20;99.40
43679;DHT22;29279;50.858;4.392;2023-07-20T09:15:06;23.50;98.80
43679;DHT22;29279;50.858;4.392;2023-07-20T09:17:32;23.70;98.10
43679;DHT22;29279;50.858;4.392;2023-07-20T09:19:59;23.90;97.70
43679;DHT22;29279;50.858;4.392;2023-07-20T09:22:30;24.20;97.40
43679;DHT22;29279;50.858;4.392;2023-07-20T09:24:57;24.70;96.80
43679;DHT22;29279;50.858;4.392;2023-07-20T09:27:34;24.80;96.70
43679;DHT22;29279;50.858;4.392;2023-07-20T09:30:01;25.00;96.80
43679;DHT22;29279;50.858;4.392;2023-07-20T09:32:27;25.10;96.20
43679;DHT22;29279;50.858;4.392;2023-07-20T09:34:52;25.00;95.80
43679;DHT22;29279;50.858;4.392;2023-07-20T09:37:22;25.10;95.60
43679;DHT22;29279;50.858;4.392;2023-07-20T09:39:48;25.20;95.40
43679;DHT22;29279;50.858;4.392;2023-07-20T09:42:15;25.40;95.40
43679;DHT22;29279;50.858;4.392;2023-07-20T09:44:43;25.60;94.90
43679;DHT22;29279;50.858;4.392;2023-07-20T09:47:09;25.70;94.80
43679;DHT22;29279;50.858;4.392;2023-07-20T09:49:41;25.80;94.20
43679;DHT22;29279;50.858;4.392;2023-07-20T09:52:11;25.70;93.90
43679;DHT22;29279;50.858;4.392;2023-07-20T09:54:40;25.80;93.40
43679;DHT22;29279;50.858;4.392;2023-07-20T09:57:07;25.80;93.40
43679;DHT22;29279;50.858;4.392;2023-07-20T09:59:34;25.80;93.90
43679;DHT22;29279;50.858;4.392;2023-07-20T10:02:02;26.10;94.10
43679;DHT22;29279;50.858;4.392;2023-07-20T10:04:30;26.30;94.40
43679;DHT22;29279;50.858;4.392;2023-07-20T10:06:59;26.40;94.20
43679;DHT22;29279;50.858;4.392;2023-07-20T10:09:26;26.60;93.40
43679;DHT22;29279;50.858;4.392;2023-07-20T10:11:53;26.70;93.00
43679;DHT22;29279;50.858;4.392;2023-07-20T10:14:20;26.70;92.70
43679;DHT22;29279;50.858;4.392;2023-07-20T10:16:57;26.70;92.80
43679;DHT22;29279;50.858;4.392;2023-07-20T10:22:05;26.90;92.70
43679;DHT22;29279;50.858;4.392;2023-07-20T10:24:32;27.00;92.20
43679;DHT22;29279;50.858;4.392;2023-07-20T10:27:01;27.10;92.00
43679;DHT22;29279;50.858;4.392;2023-07-20T10:29:27;27.10;91.70
43679;DHT22;29279;50.858;4.392;2023-07-20T10:31:54;27.00;91.70
43679;DHT22;29279;50.858;4.392;2023-07-20T10:34:21;27.00;91.50
43679;DHT22;29279;50.858;4.392;2023-07-20T10:36:50;27.10;92.10
43679;DHT22;29279;50.858;4.392;2023-07-20T10:39:31;27.30;91.70
43679;DHT22;29279;50.858;4.392;2023-07-20T10:42:07;27.20;91.30
43679;DHT22;29279;50.858;4.392;2023-07-20T10:44:33;26.90;91.30
43679;DHT22;29279;50.858;4.392;2023-07-20T10:47:08;26.50;91.30
43679;DHT22;29279;50.858;4.392;2023-07-20T10:49:34;26.30;91.30
43679;DHT22;29279;50.858;4.392;2023-07-20T10:52:05;26.10;91.50
43679;DHT22;29279;50.858;4.392;2023-07-20T10:56:57;26.10;91.80
43679;DHT22;29279;50.858;4.392;2023-07-20T11:01:55;26.20;91.90
43679;DHT22;29279;50.858;4.392;2023-07-20T11:04:38;26.10;91.80
43679;DHT22;29279;50.858;4.392;2023-07-20T11:07:05;26.10;91.70
43679;DHT22;29279;50.858;4.392;2023-07-20T11:09:35;26.20;92.10
43679;DHT22;29279;50.858;4.392;2023-07-20T11:12:15;26.40;91.80
43679;DHT22;29279;50.858;4.392;2023-07-20T11:14:42;26.50;91.70
43679;DHT22;29279;50.858;4.392;2023-07-20T11:17:15;26.60;91.70
43679;DHT22;29279;50.858;4.392;2023-07-20T11:19:41;26.60;91.10
43679;DHT22;29279;50.858;4.392;2023-07-20T11:22:07;26.50;91.60
43679;DHT22;29279;50.858;4.392;2023-07-20T11:24:34;26.50;91.60
43679;DHT22;29279;50.858;4.392;2023-07-20T11:27:00;26.50;91.80
43679;DHT22;29279;50.858;4.392;2023-07-20T11:29:27;26.40;91.80
43679;DHT22;29279;50.858;4.392;2023-07-20T11:31:52;26.50;91.70
43679;DHT22;29279;50.858;4.392;2023-07-20T11:34:19;26.50;91.50
43679;DHT22;29279;50.858;4.392;2023-07-20T11:36:47;26.40;90.70
43679;DHT22;29279;50.858;4.392;2023-07-20T11:39:15;26.30;91.50
43679;DHT22;29279;50.858;4.392;2023-07-20T11:41:50;26.50;91.80
43679;DHT22;29279;50.858;4.392;2023-07-20T11:44:20;26.70;91.00
43679;DHT22;29279;50.858;4.392;2023-07-20T11:47:09;27.20;90.40
43679;DHT22;29279;50.858;4.392;2023-07-20T11:49:42;28.40;90.00
43679;DHT22;29279;50.858;4.392;2023-07-20T11:52:14;28.10;88.40
43679;DHT22;29279;50.858;4.392;2023-07-20T11:54:41;27.70;88.30
43679;DHT22;29279;50.858;4.392;2023-07-20T11:57:15;27.50;88.50
43679;DHT22;29279;50.858;4.392;2023-07-20T11:59:53;27.40;89.10
43679;DHT22;29279;50.858;4.392;2023-07-20T12:02:21;27.30;88.40
43679;DHT22;29279;50.858;4.392;2023-07-20T12:04:47;27.30;88.40
43679;DHT22;29279;50.858;4.392;2023-07-20T12:07:13;27.10;87.80
43679;DHT22;29279;50.858;4.392;2023-07-20T12:09:39;26.90;87.90
43679;DHT22;29279;50.858;4.392;2023-07-20T12:12:09;26.80;88.60
43679;DHT22;29279;50.858;4.392;2023-07-20T12:14:37;26.60;89.10
43679;DHT22;29279;50.858;4.392;2023-07-20T12:17:03;26.40;88.60
43679;DHT22;29279;50.858;4.392;2023-07-20T12:19:28;26.40;88.90
43679;DHT22;29279;50.858;4.392;2023-07-20T12:21:58;26.40;89.10
43679;DHT22;29279;50.858;4.392;2023-07-20T12:24:25;26.20;89.70
43679;DHT22;29279;50.858;4.392;2023-07-20T12:26:56;26.30;89.10
43679;DHT22;29279;50.858;4.392;2023-07-20T12:29:22;26.30;88.70
43679;DHT22;29279;50.858;4.392;2023-07-20T12:31:48;26.40;88.50
43679;DHT22;29279;50.858;4.392;2023-07-20T12:34:14;26.60;87.70
43679;DHT22;29279;50.858;4.392;2023-07-20T12:36:39;26.80;87.30
43679;DHT22;29279;50.858;4.392;2023-07-20T12:39:05;26.90;87.60
43679;DHT22;29279;50.858;4.392;2023-07-20T12:41:30;27.10;87.10
43679;DHT22;29279;50.858;4.392;2023-07-20T12:43:56;28.60;86.20
43679;DHT22;29279;50.858;4.392;2023-07-20T12:46:23;29.00;85.90
43679;DHT22;29279;50.858;4.392;2023-07-20T12:48:49;28.50;86.20
43679;DHT22;29279;50.858;4.392;2023-07-20T12:51:15;28.20;85.90
43679;DHT22;29279;50.858;4.392;2023-07-20T12:53:40;27.90;85.80
43679;DHT22;29279;50.858;4.392;2023-07-20T12:56:06;27.60;86.40
43679;DHT22;29279;50.858;4.392;2023-07-20T12:58:32;27.40;86.90
43679;DHT22;29279;50.858;4.392;2023-07-20T13:00:58;27.20;86.00
43679;DHT22;29279;50.858;4.392;2023-07-20T13:03:23;27.00;85.90
43679;DHT22;29279;50.858;4.392;2023-07-20T13:05:49;26.70;87.70
43679;DHT22;29279;50.858;4.392;2023-07-20T13:08:16;26.60;87.50
43679;DHT22;29279;50.858;4.392;2023-07-20T13:10:43;26.60;88.10
43679;DHT22;29279;50.858;4.392;2023-07-20T13:13:09;26.50;88.60
43679;DHT22;29279;50.858;4.392;2023-07-20T13:15:42;26.30;88.90
43679;DHT22;29279;50.858;4.392;2023-07-20T13:18:08;26.10;89.00
43679;DHT22;29279;50.858;4.392;2023-07-20T13:20:34;26.00;89.00
43679;DHT22;29279;50.858;4.392;2023-07-20T13:22:59;25.80;89.10
43679;DHT22;29279;50.858;4.392;2023-07-20T13:25:25;25.60;89.60
43679;DHT22;29279;50.858;4.392;2023-07-20T13:27:51;25.50;89.40
43679;DHT22;29279;50.858;4.392;2023-07-20T13:30:16;25.50;89.90
43679;DHT22;29279;50.858;4.392;2023-07-20T13:32:43;25.40;90.60
43679;DHT22;29279;50.858;4.392;2023-07-20T13:35:12;25.20;92.00
43679;DHT22;29279;50.858;4.392;2023-07-20T13:37:38;25.00;92.10
43679;DHT22;29279;50.858;4.392;2023-07-20T13:40:04;24.80;93.30
43679;DHT22;29279;50.858;4.392;2023-07-20T13:42:37;24.70;94.20
43679;DHT22;29279;50.858;4.392;2023-07-20T13:45:03;24.40;94.40
43679;DHT22;29279;50.858;4.392;2023-07-20T13:47:29;24.40;95.10
43679;DHT22;29279;50.858;4.392;2023-07-20T13:49:54;24.30;94.60
43679;DHT22;29279;50.858;4.392;2023-07-20T13:52:21;24.20;94.60
43679;DHT22;29279;50.858;4.392;2023-07-20T13:54:47;24.10;93.90
43679;DHT22;29279;50.858;4.392;2023-07-20T13:57:12;24.20;94.40
43679;DHT22;29279;50.858;4.392;2023-07-20T13:59:38;24.20;95.10
43679;DHT22;29279;50.858;4.392;2023-07-20T14:02:07;24.30;94.90
43679;DHT22;29279;50.858;4.392;2023-07-20T14:04:32;24.30;94.30
43679;DHT22;29279;50.858;4.392;2023-07-20T14:06:58;24.30;95.30
43679;DHT22;29279;50.858;4.392;2023-07-20T14:09:23;24.40;95.90
43679;DHT22;29279;50.858;4.392;2023-07-20T14:11:49;24.50;96.00
43679;DHT22;29279;50.858;4.392;2023-07-20T14:14:15;24.80;95.00
43679;DHT22;29279;50.858;4.392;2023-07-20T14:16:40;25.10;94.90
43679;DHT22;29279;50.858;4.392;2023-07-20T14:19:06;25.50;93.80
43679;DHT22;29279;50.858;4.392;2023-07-20T14:21:32;25.90;93.90
43679;DHT22;29279;50.858;4.392;2023-07-20T14:23:58;26.10;93.00
43679;DHT22;29279;50.858;4.392;2023-07-20T14:26:24;26.30;92.90
43679;DHT22;29279;50.858;4.392;2023-07-20T14:28:50;26.50;93.20
43679;DHT22;29279;50.858;4.392;2023-07-20T14:31:16;27.40;92.60
43679;DHT22;29279;50.858;4.392;2023-07-20T14:33:41;27.20;92.30
43679;DHT22;29279;50.858;4.392;2023-07-20T14:36:07;26.80;91.90
43679;DHT22;29279;50.858;4.392;2023-07-20T14:38:33;27.60;92.00
43679;DHT22;29279;50.858;4.392;2023-07-20T14:40:59;28.30;91.10
43679;DHT22;29279;50.858;4.392;2023-07-20T14:43:25;28.50;90.90
43679;DHT22;29279;50.858;4.392;2023-07-20T14:45:50;29.10;90.70
43679;DHT22;29279;50.858;4.392;2023-07-20T14:48:16;29.40;89.50
43679;DHT22;29279;50.858;4.392;2023-07-20T14:50:42;29.10;88.80
43679;DHT22;29279;50.858;4.392;2023-07-20T14:53:11;28.70;88.20
43679;DHT22;29279;50.858;4.392;2023-07-20T14:55:37;28.60;90.00
43679;DHT22;29279;50.858;4.392;2023-07-20T14:58:03;28.60;89.30
43679;DHT22;29279;50.858;4.392;2023-07-20T15:00:28;28.20;88.20
43679;DHT22;29279;50.858;4.392;2023-07-20T15:02:55;27.90;89.20
43679;DHT22;29279;50.858;4.392;2023-07-20T15:05:22;27.80;89.00
43679;DHT22;29279;50.858;4.392;2023-07-20T15:07:48;27.60;89.10
43679;DHT22;29279;50.858;4.392;2023-07-20T15:10:14;27.50;88.60
43679;DHT22;29279;50.858;4.392;2023-07-20T15:12:40;27.10;89.50
43679;DHT22;29279;50.858;4.392;2023-07-20T15:15:07;26.90;89.20
43679;DHT22;29279;50.858;4.392;2023-07-20T15:17:34;26.60;90.00
43679;DHT22;29279;50.858;4.392;2023-07-20T15:20:01;26.40;89.80
43679;DHT22;29279;50.858;4.392;2023-07-20T15:22:30;26.30;90.00
43679;DHT22;29279;50.858;4.392;2023-07-20T15:24:56;26.30;90.10
43679;DHT22;29279;50.858;4.392;2023-07-20T15:27:22;26.10;90.30
43679;DHT22;29279;50.858;4.392;2023-07-20T15:29:48;25.90;90.70
43679;DHT22;29279;50.858;4.392;2023-07-20T15:32:14;25.70;90.30
43679;DHT22;29279;50.858;4.392;2023-07-20T15:34:42;25.50;90.80
43679;DHT22;29279;50.858;4.392;2023-07-20T15:37:09;25.40;90.90
43679;DHT22;29279;50.858;4.392;2023-07-20T15:39:36;25.20;91.20
43679;DHT22;29279;50.858;4.392;2023-07-20T15:42:01;25.10;91.20
43679;DHT22;29279;50.858;4.392;2023-07-20T15:44:27;25.10;92.30
43679;DHT22;29279;50.858;4.392;2023-07-20T15:46:53;25.00;92.10